Time;durP1;ratioP1;P1;durP2;ratioP2;P2;SDS_P1;SDS_P2;PMS_P1;PMS_P2;Temp;Humidity;BMP_temperature;BMP_pressure;BME280_temperature;BME280_humidity;BME280_pressure;Samples;Min_cycle;Max_cycle;Signal;HPM_P1;HPM_P2
2024/01/30 00:02:14;;;;;;;7.55;2.95;;;;;;;;;;5032492;28;20033;-60
2024/01/30 00:04:40;;;;;;;3.90;2.83;;;;;;;;;;5025804;28;20056;-61
2024/01/30 00:07:07;;;;;;;6.78;3.75;;;;;;;;;;5030969;28;20541;-61
2024/01/30 00:09:33;;;;;;;3.47;3.17;;;;;;;;;;5020052;28;20030;-61
2024/01/30 00:12:00;;;;;;;8.18;3.25;;;;;;;;;;5024133;28;20292;-61
2024/01/30 00:14:26;;;;;;;9.38;2.88;;;;;;;;;;5018447;28;20037;-61
2024/01/30 00:16:53;;;;;;;2.85;2.55;;;;;;;;;;5022283;28;20022;-61
2024/01/30 00:19:19;;;;;;;4.00;2.55;;;;;;;;;;5024451;28;20533;-61
2024/01/30 00:21:45;;;;;;;9.50;2.33;;;;;;;;;;5021975;28;20062;-61
2024/01/30 00:24:12;;;;;;;9.48;2.85;;;;;;;;;;5019204;28;20053;-61
2024/01/30 00:26:38;;;;;;;3.97;2.22;;;;;;;;;;5039068;28;20151;-62
2024/01/30 00:29:04;;;;;;;4.00;2.53;;;;;;;;;;5021752;28;20036;-62
2024/01/30 00:31:31;;;;;;;4.80;2.72;;;;;;;;;;5002561;28;20030;-62
2024/01/30 00:33:57;;;;;;;7.13;2.97;;;;;;;;;;5007547;28;20056;-63
2024/01/30 00:36:23;;;;;;;5.03;2.70;;;;;;;;;;5023753;28;20025;-62
2024/01/30 00:38:50;;;;;;;6.55;2.90;;;;;;;;;;5013427;28;20041;-62
2024/01/30 00:41:19;;;;;;;7.07;3.10;;;;;;;;;;5024217;28;20034;-62
2024/01/30 00:43:45;;;;;;;5.00;2.50;;;;;;;;;;5016650;28;20030;-69
2024/01/30 00:46:11;;;;;;;5.93;3.22;;;;;;;;;;5019895;28;20080;-61
2024/01/30 00:48:38;;;;;;;15.30;3.08;;;;;;;;;;5013490;28;20268;-61
2024/01/30 00:51:05;;;;;;;9.55;3.55;;;;;;;;;;5010992;28;20630;-61
2024/01/30 00:53:32;;;;;;;3.50;2.75;;;;;;;;;;5024231;28;20026;-61
2024/01/30 00:55:58;;;;;;;7.95;3.40;;;;;;;;;;5011743;28;20044;-61
2024/01/30 00:58:25;;;;;;;2.75;2.47;;;;;;;;;;5022650;28;20070;-60
2024/01/30 01:00:51;;;;;;;8.15;2.85;;;;;;;;;;5030003;28;20107;-61
2024/01/30 01:03:17;;;;;;;3.97;2.95;;;;;;;;;;5024891;28;20481;-61
2024/01/30 01:05:43;;;;;;;4.05;2.20;;;;;;;;;;5025262;28;20063;-62
2024/01/30 01:08:10;;;;;;;7.47;2.72;;;;;;;;;;5020626;28;20053;-61
2024/01/30 01:10:36;;;;;;;7.97;3.08;;;;;;;;;;5027857;28;20034;-61
2024/01/30 01:13:05;;;;;;;4.72;2.45;;;;;;;;;;5033235;28;20393;-64
2024/01/30 01:15:32;;;;;;;3.58;2.10;;;;;;;;;;5024660;28;20468;-62
2024/01/30 01:17:58;;;;;;;4.93;2.60;;;;;;;;;;5026500;28;20034;-63
2024/01/30 01:20:24;;;;;;;6.00;2.10;;;;;;;;;;5016278;28;20606;-61
2024/01/30 01:22:52;;;;;;;4.78;2.35;;;;;;;;;;5026799;28;20025;-61
2024/01/30 01:25:18;;;;;;;6.82;2.00;;;;;;;;;;5009100;28;20029;-61
2024/01/30 01:27:51;;;;;;;6.22;2.90;;;;;;;;;;5021685;28;20500;-61
2024/01/30 01:30:25;;;;;;;5.13;2.90;;;;;;;;;;5028612;28;20074;-61
2024/01/30 01:32:56;;;;;;;4.80;2.10;;;;;;;;;;5018635;28;20029;-61
2024/01/30 01:35:26;;;;;;;10.20;3.10;;;;;;;;;;5023736;28;20029;-62
2024/01/30 01:37:56;;;;;;;5.30;2.42;;;;;;;;;;5024676;28;20485;-61
2024/01/30 01:40:25;;;;;;;8.18;2.53;;;;;;;;;;5008647;28;20375;-61
2024/01/30 01:42:54;;;;;;;5.55;2.45;;;;;;;;;;5022612;28;20033;-61
2024/01/30 01:45:21;;;;;;;2.20;2.03;;;;;;;;;;5011692;28;20062;-62
2024/01/30 01:47:53;;;;;;;4.93;2.42;;;;;;;;;;5016717;28;20505;-62
2024/01/30 01:50:21;;;;;;;10.65;2.75;;;;;;;;;;5021200;28;20072;-63
2024/01/30 01:52:48;;;;;;;4.78;2.40;;;;;;;;;;5022451;28;20416;-62
2024/01/30 01:55:15;;;;;;;2.55;2.15;;;;;;;;;;5026995;28;20556;-62
2024/01/30 01:57:45;;;;;;;6.32;2.05;;;;;;;;;;5024658;28;20065;-60
2024/01/30 02:00:12;;;;;;;5.18;2.42;;;;;;;;;;5020661;28;20516;-62
2024/01/30 02:02:39;;;;;;;4.13;2.40;;;;;;;;;;5014313;28;20026;-61
2024/01/30 02:05:06;;;;;;;2.92;2.42;;;;;;;;;;5014063;28;20112;-62
2024/01/30 02:07:32;;;;;;;6.20;2.47;;;;;;;;;;5028749;28;20508;-61
2024/01/30 02:09:58;;;;;;;13.77;2.45;;;;;;;;;;5037453;28;20382;-62
2024/01/30 02:12:25;;;;;;;4.95;2.58;;;;;;;;;;5015013;28;20494;-61
2024/01/30 02:14:55;;;;;;;3.80;2.47;;;;;;;;;;5029195;28;20047;-62
2024/01/30 02:17:23;;;;;;;4.78;2.28;;;;;;;;;;5018599;28;20057;-62
2024/01/30 02:19:49;;;;;;;6.25;2.33;;;;;;;;;;5005580;28;20056;-62
2024/01/30 02:22:15;;;;;;;7.70;1.75;;;;;;;;;;5022372;28;20034;-62
2024/01/30 02:24:42;;;;;;;4.70;2.28;;;;;;;;;;5015633;28;20486;-61
2024/01/30 02:27:08;;;;;;;1.98;1.85;;;;;;;;;;5022402;28;20371;-62
2024/01/30 02:29:34;;;;;;;1.95;1.75;;;;;;;;;;5019867;28;20040;-63
2024/01/30 02:32:00;;;;;;;6.70;2.85;;;;;;;;;;5023935;28;20499;-62
2024/01/30 02:34:27;;;;;;;5.13;1.75;;;;;;;;;;5017512;28;20053;-62
2024/01/30 02:36:53;;;;;;;1.70;1.60;;;;;;;;;;5022370;28;20034;-61
2024/01/30 02:39:19;;;;;;;2.88;2.40;;;;;;;;;;5030318;28;20381;-61
2024/01/30 02:41:46;;;;;;;5.15;2.53;;;;;;;;;;5026457;28;20036;-61
2024/01/30 02:44:12;;;;;;;2.30;2.10;;;;;;;;;;5027578;28;20022;-61
2024/01/30 02:46:38;;;;;;;1.92;1.83;;;;;;;;;;5029321;28;20056;-63
2024/01/30 02:49:05;;;;;;;2.10;1.98;;;;;;;;;;5014703;28;20370;-62
2024/01/30 02:51:31;;;;;;;2.45;2.08;;;;;;;;;;5041862;28;20509;-62
2024/01/30 02:53:57;;;;;;;4.97;2.03;;;;;;;;;;5011709;28;20022;-62
2024/01/30 02:56:23;;;;;;;2.15;1.67;;;;;;;;;;5013313;28;20569;-61
2024/01/30 02:58:50;;;;;;;1.83;1.73;;;;;;;;;;5021056;28;20030;-62
2024/01/30 03:01:16;;;;;;;6.15;2.25;;;;;;;;;;5029960;28;20033;-62
2024/01/30 03:03:43;;;;;;;13.95;2.08;;;;;;;;;;5019146;28;20048;-68
2024/01/30 03:06:09;;;;;;;7.68;1.77;;;;;;;;;;5033373;28;20032;-69
2024/01/30 03:08:36;;;;;;;2.03;1.75;;;;;;;;;;5026649;28;20044;-68
2024/01/30 03:11:02;;;;;;;2.42;1.85;;;;;;;;;;5023575;28;20248;-68
2024/01/30 03:13:28;;;;;;;1.58;1.48;;;;;;;;;;5024345;28;20555;-68
2024/01/30 03:15:54;;;;;;;7.40;3.08;;;;;;;;;;5015238;28;20108;-68
2024/01/30 03:18:22;;;;;;;7.97;2.58;;;;;;;;;;5024323;28;20513;-68
2024/01/30 03:20:48;;;;;;;5.32;1.90;;;;;;;;;;5007828;28;20481;-69
2024/01/30 03:23:14;;;;;;;3.75;2.65;;;;;;;;;;5020016;28;20026;-68
2024/01/30 03:25:40;;;;;;;3.42;2.05;;;;;;;;;;5024026;28;20025;-68
2024/01/30 03:28:07;;;;;;;2.00;1.83;;;;;;;;;;5026960;28;20358;-68
2024/01/30 03:30:35;;;;;;;1.98;1.80;;;;;;;;;;5033260;28;20020;-68
2024/01/30 03:33:01;;;;;;;3.15;2.45;;;;;;;;;;5033443;28;20083;-69
2024/01/30 03:35:27;;;;;;;4.38;2.20;;;;;;;;;;5021163;28;20029;-68
2024/01/30 03:37:53;;;;;;;4.05;1.55;;;;;;;;;;5026569;28;20060;-69
2024/01/30 03:40:20;;;;;;;4.10;1.67;;;;;;;;;;5028286;28;20032;-68
2024/01/30 03:42:47;;;;;;;2.90;1.85;;;;;;;;;;5031192;28;20026;-67
2024/01/30 03:45:13;;;;;;;2.47;1.88;;;;;;;;;;5030623;28;20133;-68
2024/01/30 03:47:39;;;;;;;5.82;1.80;;;;;;;;;;5028829;28;20017;-68
2024/01/30 03:50:06;;;;;;;4.97;2.28;;;;;;;;;;5024125;28;20033;-68
2024/01/30 03:52:32;;;;;;;1.77;1.67;;;;;;;;;;5028158;28;20100;-68
2024/01/30 03:54:58;;;;;;;3.20;2.10;;;;;;;;;;5018668;28;20022;-68
2024/01/30 03:57:25;;;;;;;5.40;1.48;;;;;;;;;;5019735;28;20064;-68
2024/01/30 03:59:51;;;;;;;10.82;2.30;;;;;;;;;;5025274;28;20025;-67
2024/01/30 04:02:18;;;;;;;2.72;1.50;;;;;;;;;;5022317;28;20030;-68
2024/01/30 04:04:44;;;;;;;1.30;1.20;;;;;;;;;;5030167;28;20025;-67
2024/01/30 04:07:10;;;;;;;6.65;2.45;;;;;;;;;;5037328;28;20037;-67
2024/01/30 04:09:37;;;;;;;10.57;3.08;;;;;;;;;;5015138;28;20100;-69
2024/01/30 04:12:03;;;;;;;5.40;1.90;;;;;;;;;;5030907;28;20050;-68
2024/01/30 04:14:30;;;;;;;2.75;1.80;;;;;;;;;;5021647;28;20109;-67
2024/01/30 04:16:56;;;;;;;4.28;2.60;;;;;;;;;;5024216;28;20899;-68
2024/01/30 04:19:22;;;;;;;3.47;1.70;;;;;;;;;;5030752;28;20104;-68
2024/01/30 04:21:52;;;;;;;6.13;2.65;;;;;;;;;;5031488;28;20064;-68
2024/01/30 04:24:18;;;;;;;5.95;2.22;;;;;;;;;;5032460;28;20037;-68
2024/01/30 04:26:48;;;;;;;1.90;1.80;;;;;;;;;;5033933;28;20053;-68
2024/01/30 04:29:15;;;;;;;1.90;1.70;;;;;;;;;;5023473;28;20046;-67
2024/01/30 04:31:41;;;;;;;4.90;2.25;;;;;;;;;;5025807;28;20022;-68
2024/01/30 04:34:07;;;;;;;2.10;1.90;;;;;;;;;;5029151;28;20071;-68
2024/01/30 04:36:34;;;;;;;7.57;2.85;;;;;;;;;;5020557;28;20497;-67
2024/01/30 04:39:00;;;;;;;2.92;1.70;;;;;;;;;;5011408;28;20064;-68
2024/01/30 04:41:31;;;;;;;11.23;2.53;;;;;;;;;;5031636;28;20392;-68
2024/01/30 04:43:58;;;;;;;3.38;2.60;;;;;;;;;;5029095;28;20037;-68
2024/01/30 04:46:24;;;;;;;2.97;2.20;;;;;;;;;;5026440;28;20057;-67
2024/01/30 04:48:51;;;;;;;3.45;1.88;;;;;;;;;;5022528;28;20030;-67
2024/01/30 04:51:17;;;;;;;2.40;2.20;;;;;;;;;;5029359;28;20053;-68
2024/01/30 04:53:43;;;;;;;3.45;2.17;;;;;;;;;;5026994;28;20474;-67
2024/01/30 04:56:09;;;;;;;5.13;1.80;;;;;;;;;;5034321;28;20470;-67
2024/01/30 04:58:36;;;;;;;2.38;2.17;;;;;;;;;;5023896;28;20033;-67
2024/01/30 05:01:03;;;;;;;2.75;2.22;;;;;;;;;;5012088;28;20053;-67
2024/01/30 05:03:29;;;;;;;2.33;2.22;;;;;;;;;;5023728;28;20069;-67
2024/01/30 05:05:55;;;;;;;2.33;2.10;;;;;;;;;;5015028;28;20037;-67
2024/01/30 05:08:22;;;;;;;3.03;1.92;;;;;;;;;;5029677;28;20029;-68
2024/01/30 05:10:48;;;;;;;7.88;3.15;;;;;;;;;;5010794;28;20026;-67
2024/01/30 05:13:15;;;;;;;5.53;2.40;;;;;;;;;;5036633;28;20029;-67
2024/01/30 05:15:41;;;;;;;3.30;2.00;;;;;;;;;;5015698;28;20025;-67
2024/01/30 05:18:08;;;;;;;5.60;3.05;;;;;;;;;;5029626;28;20497;-68
2024/01/30 05:20:35;;;;;;;6.88;2.67;;;;;;;;;;5027084;28;20386;-67
2024/01/30 05:23:01;;;;;;;5.60;2.15;;;;;;;;;;5030707;28;20021;-67
2024/01/30 05:25:27;;;;;;;4.20;2.63;;;;;;;;;;5030745;28;20037;-67
2024/01/30 05:27:55;;;;;;;7.55;2.33;;;;;;;;;;5025845;28;20026;-67
2024/01/30 05:30:25;;;;;;;1.88;1.77;;;;;;;;;;5036024;28;20076;-67
2024/01/30 05:32:52;;;;;;;2.38;2.08;;;;;;;;;;5023344;28;20026;-67
2024/01/30 05:35:20;;;;;;;7.97;3.20;;;;;;;;;;5027111;28;20041;-67
2024/01/30 05:37:47;;;;;;;7.70;2.35;;;;;;;;;;5027330;28;20033;-67
2024/01/30 05:40:14;;;;;;;3.38;2.10;;;;;;;;;;5028364;28;20433;-67
2024/01/30 05:42:40;;;;;;;5.57;2.42;;;;;;;;;;5006878;28;20038;-67
2024/01/30 05:45:06;;;;;;;4.80;2.70;;;;;;;;;;5030830;28;20135;-68
2024/01/30 05:47:32;;;;;;;4.45;3.00;;;;;;;;;;5035369;28;20474;-67
2024/01/30 05:49:58;;;;;;;2.28;2.08;;;;;;;;;;5026522;28;20026;-67
2024/01/30 05:52:25;;;;;;;5.05;2.60;;;;;;;;;;5016285;28;20044;-67
2024/01/30 05:54:51;;;;;;;3.90;2.38;;;;;;;;;;5035348;28;20021;-67
2024/01/30 05:57:17;;;;;;;5.38;2.58;;;;;;;;;;5036593;28;20068;-67
2024/01/30 05:59:47;;;;;;;4.25;1.70;;;;;;;;;;5030263;28;20057;-68
2024/01/30 06:02:14;;;;;;;4.03;2.45;;;;;;;;;;5038692;28;20032;-68
2024/01/30 06:04:44;;;;;;;5.43;3.28;;;;;;;;;;5022029;28;20029;-68
2024/01/30 06:07:10;;;;;;;4.07;2.47;;;;;;;;;;5022956;28;20396;-68
2024/01/30 06:09:38;;;;;;;7.65;2.40;;;;;;;;;;5032225;28;20056;-68
2024/01/30 06:12:07;;;;;;;5.10;2.22;;;;;;;;;;5029062;28;20115;-68
2024/01/30 06:14:36;;;;;;;1.90;1.80;;;;;;;;;;5032959;28;20018;-68
2024/01/30 06:17:02;;;;;;;2.08;1.88;;;;;;;;;;5026381;28;20022;-68
2024/01/30 06:19:28;;;;;;;5.85;2.22;;;;;;;;;;4996707;28;20042;-68
2024/01/30 06:21:55;;;;;;;16.77;3.08;;;;;;;;;;4995129;28;20031;-67
2024/01/30 06:24:21;;;;;;;7.15;3.22;;;;;;;;;;4997897;28;20045;-68
2024/01/30 06:26:47;;;;;;;5.88;2.42;;;;;;;;;;4998504;28;20094;-68
2024/01/30 06:29:14;;;;;;;5.30;3.03;;;;;;;;;;4997184;28;20030;-68
2024/01/30 06:31:44;;;;;;;6.82;2.85;;;;;;;;;;5006006;28;20096;-68
2024/01/30 06:34:13;;;;;;;2.90;2.55;;;;;;;;;;5008034;28;20038;-67
2024/01/30 06:36:42;;;;;;;4.25;2.40;;;;;;;;;;4995516;28;20394;-68
2024/01/30 06:39:08;;;;;;;2.83;2.33;;;;;;;;;;4996849;28;20105;-68
2024/01/30 06:41:35;;;;;;;1.92;1.83;;;;;;;;;;4992465;28;20026;-68
2024/01/30 06:44:04;;;;;;;4.22;2.03;;;;;;;;;;4994549;28;20034;-68
2024/01/30 06:46:31;;;;;;;2.33;2.10;;;;;;;;;;4996539;28;20442;-68
2024/01/30 06:48:57;;;;;;;7.82;2.25;;;;;;;;;;4991538;28;20038;-68
2024/01/30 06:51:24;;;;;;;4.55;2.65;;;;;;;;;;4998132;28;20032;-68
2024/01/30 06:53:50;;;;;;;2.80;2.50;;;;;;;;;;5005870;28;20026;-68
2024/01/30 06:56:20;;;;;;;3.30;2.20;;;;;;;;;;4986424;28;20049;-68
2024/01/30 06:58:47;;;;;;;11.27;3.08;;;;;;;;;;4997403;28;20128;-68
2024/01/30 07:01:15;;;;;;;5.93;2.17;;;;;;;;;;4994543;28;20030;-68
2024/01/30 07:03:41;;;;;;;6.93;3.15;;;;;;;;;;4986883;28;20031;-69
2024/01/30 07:06:08;;;;;;;5.22;2.60;;;;;;;;;;5000356;28;20018;-68
2024/01/30 07:08:34;;;;;;;2.85;2.28;;;;;;;;;;4991152;28;20368;-67
2024/01/30 07:11:00;;;;;;;5.25;2.83;;;;;;;;;;4988725;28;20469;-68
2024/01/30 07:13:28;;;;;;;3.05;2.75;;;;;;;;;;5014048;28;20037;-68
2024/01/30 07:15:55;;;;;;;3.05;2.13;;;;;;;;;;4995588;28;20624;-68
2024/01/30 07:18:21;;;;;;;5.07;3.30;;;;;;;;;;4999261;28;20046;-67
2024/01/30 07:20:47;;;;;;;2.60;2.25;;;;;;;;;;5022470;28;20551;-68
2024/01/30 07:23:16;;;;;;;12.02;3.10;;;;;;;;;;5011432;28;20112;-68
2024/01/30 07:25:43;;;;;;;8.43;2.75;;;;;;;;;;5028528;28;20037;-69
2024/01/30 07:28:10;;;;;;;8.85;3.75;;;;;;;;;;5003982;28;20490;-68
2024/01/30 07:30:37;;;;;;;2.88;2.40;;;;;;;;;;5033116;28;20443;-68
2024/01/30 07:33:03;;;;;;;8.45;3.05;;;;;;;;;;5023020;28;20026;-68
2024/01/30 07:35:29;;;;;;;16.23;3.17;;;;;;;;;;5005912;28;20022;-68
2024/01/30 07:37:57;;;;;;;4.03;2.95;;;;;;;;;;5012439;28;20025;-68
2024/01/30 07:40:24;;;;;;;3.13;2.30;;;;;;;;;;5020841;28;20034;-68
2024/01/30 07:42:51;;;;;;;4.65;2.92;;;;;;;;;;5020562;28;20029;-67
2024/01/30 07:45:22;;;;;;;5.78;3.47;;;;;;;;;;5005988;28;20568;-68
2024/01/30 07:47:49;;;;;;;6.00;2.70;;;;;;;;;;5025910;28;20026;-69
2024/01/30 07:50:15;;;;;;;9.90;3.42;;;;;;;;;;5013535;28;20328;-68
2024/01/30 07:52:42;;;;;;;2.45;1.98;;;;;;;;;;5022441;28;20033;-68
2024/01/30 07:55:09;;;;;;;8.77;2.55;;;;;;;;;;5028929;28;20469;-68
2024/01/30 07:57:35;;;;;;;4.15;2.42;;;;;;;;;;5020452;28;20174;-68
2024/01/30 08:00:05;;;;;;;7.60;3.05;;;;;;;;;;5012625;28;20032;-68
2024/01/30 08:02:32;;;;;;;7.30;3.58;;;;;;;;;;5019647;28;20691;-68
2024/01/30 08:04:58;;;;;;;5.82;3.30;;;;;;;;;;5030404;28;20030;-68
2024/01/30 08:07:24;;;;;;;3.40;2.90;;;;;;;;;;5020294;28;20034;-67
2024/01/30 08:09:51;;;;;;;3.22;2.92;;;;;;;;;;5018879;28;20029;-70
2024/01/30 08:12:17;;;;;;;2.22;2.00;;;;;;;;;;5019990;28;20035;-70
2024/01/30 08:14:43;;;;;;;4.53;2.90;;;;;;;;;;5025393;28;20160;-70
2024/01/30 08:17:09;;;;;;;5.78;2.90;;;;;;;;;;5000889;28;20089;-70
2024/01/30 08:19:35;;;;;;;7.32;3.47;;;;;;;;;;5027155;28;20386;-70
2024/01/30 08:22:02;;;;;;;5.80;2.65;;;;;;;;;;5027887;28;20037;-70
2024/01/30 08:24:28;;;;;;;4.63;3.03;;;;;;;;;;5027548;28;20025;-70
2024/01/30 08:26:54;;;;;;;6.57;3.22;;;;;;;;;;5024855;28;20038;-70
2024/01/30 08:29:21;;;;;;;6.88;3.45;;;;;;;;;;5032388;28;20541;-69
2024/01/30 08:31:47;;;;;;;6.03;3.58;;;;;;;;;;5028182;28;20030;-67
2024/01/30 08:34:14;;;;;;;9.35;2.72;;;;;;;;;;5007469;28;20106;-70
2024/01/30 08:36:45;;;;;;;3.50;2.85;;;;;;;;;;5024558;28;20045;-70
2024/01/30 08:39:11;;;;;;;3.75;3.25;;;;;;;;;;5025535;28;20739;-69
2024/01/30 08:41:37;;;;;;;15.38;3.53;;;;;;;;;;5030431;28;20036;-68
2024/01/30 08:44:04;;;;;;;6.05;2.70;;;;;;;;;;5026181;28;20032;-66
2024/01/30 08:46:30;;;;;;;13.88;3.03;;;;;;;;;;5033794;28;20116;-68
2024/01/30 08:48:57;;;;;;;7.97;3.58;;;;;;;;;;5013608;28;20037;-66
2024/01/30 08:51:23;;;;;;;4.03;3.20;;;;;;;;;;5026793;28;20049;-70
2024/01/30 08:53:51;;;;;;;3.70;3.28;;;;;;;;;;5032971;28;20025;-70
2024/01/30 08:56:17;;;;;;;5.22;2.80;;;;;;;;;;5012131;28;20071;-73
2024/01/30 08:58:44;;;;;;;6.60;3.00;;;;;;;;;;5026602;28;20030;-70
2024/01/30 09:01:10;;;;;;;6.20;3.03;;;;;;;;;;5028927;28;20033;-72
2024/01/30 09:03:39;;;;;;;3.28;2.97;;;;;;;;;;5031290;28;20029;-72
2024/01/30 09:06:09;;;;;;;5.45;3.88;;;;;;;;;;5028435;28;20126;-72
2024/01/30 09:08:35;;;;;;;3.30;2.65;;;;;;;;;;5025229;28;20053;-73
2024/01/30 09:11:01;;;;;;;5.30;3.72;;;;;;;;;;5011570;28;20052;-70
2024/01/30 09:13:31;;;;;;;3.75;2.75;;;;;;;;;;5027917;28;20032;-69
2024/01/30 09:15:57;;;;;;;8.75;3.45;;;;;;;;;;5024256;28;20026;-72
2024/01/30 09:18:23;;;;;;;4.50;3.00;;;;;;;;;;5026088;28;20510;-72
2024/01/30 09:20:52;;;;;;;6.45;3.45;;;;;;;;;;5001941;28;20033;-73
2024/01/30 09:23:19;;;;;;;4.65;3.50;;;;;;;;;;5001400;28;20092;-71
2024/01/30 09:25:46;;;;;;;3.30;3.00;;;;;;;;;;5018771;28;20482;-70
2024/01/30 09:28:13;;;;;;;7.65;3.53;;;;;;;;;;5005926;28;20038;-70
2024/01/30 09:30:40;;;;;;;10.73;3.47;;;;;;;;;;5005498;28;20212;-71
2024/01/30 09:33:07;;;;;;;7.22;3.42;;;;;;;;;;5027622;28;20029;-67
2024/01/30 09:35:33;;;;;;;4.03;2.80;;;;;;;;;;5019951;28;20021;-70
2024/01/30 09:38:00;;;;;;;3.00;2.50;;;;;;;;;;5015435;28;20452;-70
2024/01/30 09:40:26;;;;;;;4.05;3.33;;;;;;;;;;5025198;28;20029;-70
2024/01/30 09:42:53;;;;;;;6.57;4.00;;;;;;;;;;5003811;28;20061;-70
2024/01/30 09:45:19;;;;;;;3.88;2.58;;;;;;;;;;5019331;28;20026;-70
2024/01/30 09:47:46;;;;;;;5.03;3.45;;;;;;;;;;5020459;28;20065;-70
2024/01/30 09:50:16;;;;;;;6.10;3.30;;;;;;;;;;5018999;28;20037;-68
2024/01/30 09:52:43;;;;;;;3.47;2.42;;;;;;;;;;5022488;28;20080;-75
2024/01/30 09:55:10;;;;;;;3.22;2.92;;;;;;;;;;5024895;28;20057;-72
2024/01/30 09:57:36;;;;;;;6.70;3.55;;;;;;;;;;5012436;28;20025;-71
2024/01/30 10:00:04;;;;;;;4.32;3.00;;;;;;;;;;5031542;28;20065;-68
2024/01/30 10:02:32;;;;;;;3.38;2.50;;;;;;;;;;5017945;28;20033;-68
2024/01/30 10:04:59;;;;;;;2.53;2.30;;;;;;;;;;5019593;28;20029;-69
2024/01/30 10:07:26;;;;;;;3.60;2.75;;;;;;;;;;5004929;28;20036;-68
2024/01/30 10:09:53;;;;;;;4.25;3.75;;;;;;;;;;5004792;28;20018;-68
2024/01/30 10:12:20;;;;;;;4.28;2.63;;;;;;;;;;5021162;28;20029;-68
2024/01/30 10:14:46;;;;;;;2.50;2.30;;;;;;;;;;5020433;28;20037;-69
2024/01/30 10:17:13;;;;;;;5.07;2.67;;;;;;;;;;5023156;28;20033;-68
2024/01/30 10:19:40;;;;;;;4.38;2.70;;;;;;;;;;5019871;28;20784;-68
2024/01/30 10:22:06;;;;;;;6.45;2.88;;;;;;;;;;5017882;28;20034;-69
2024/01/30 10:24:36;;;;;;;7.53;2.88;;;;;;;;;;5019279;28;20033;-68
2024/01/30 10:27:03;;;;;;;4.88;2.50;;;;;;;;;;5018881;28;20037;-68
2024/01/30 10:29:29;;;;;;;8.00;2.97;;;;;;;;;;5016107;28;20552;-68
2024/01/30 10:31:59;;;;;;;8.20;3.85;;;;;;;;;;5021954;28;20579;-68
2024/01/30 10:34:26;;;;;;;4.15;2.50;;;;;;;;;;5002401;28;20030;-68
2024/01/30 10:36:56;;;;;;;2.17;1.98;;;;;;;;;;5001625;28;20459;-68
2024/01/30 10:39:23;;;;;;;4.05;3.55;;;;;;;;;;4988020;28;20033;-68
2024/01/30 10:41:50;;;;;;;5.25;2.75;;;;;;;;;;5019734;28;20480;-67
2024/01/30 10:44:18;;;;;;;3.80;2.20;;;;;;;;;;5020915;28;20036;-66
2024/01/30 10:46:47;;;;;;;7.97;2.47;;;;;;;;;;5016842;28;20037;-68
2024/01/30 10:49:14;;;;;;;3.22;2.70;;;;;;;;;;5021756;28;20053;-68
2024/01/30 10:51:41;;;;;;;2.40;2.20;;;;;;;;;;5020265;28;20504;-69
2024/01/30 10:54:07;;;;;;;7.03;2.80;;;;;;;;;;5021741;28;20462;-71
2024/01/30 10:56:34;;;;;;;3.67;3.35;;;;;;;;;;5022689;28;20033;-66
2024/01/30 10:59:00;;;;;;;6.05;3.05;;;;;;;;;;5025558;28;20128;-68
2024/01/30 11:01:28;;;;;;;3.10;2.80;;;;;;;;;;5024411;28;20030;-69
2024/01/30 11:03:54;;;;;;;5.20;3.63;;;;;;;;;;5021259;28;20099;-67
2024/01/30 11:06:23;;;;;;;4.07;2.40;;;;;;;;;;5018877;28;20033;-67
2024/01/30 11:09:09;;;;;;;3.72;2.40;;;;;;;;;;5021428;28;20434;-67
2024/01/30 11:11:54;;;;;;;4.03;2.55;;;;;;;;;;5018192;28;20022;-65
2024/01/30 11:14:25;;;;;;;6.40;2.97;;;;;;;;;;5018200;28;20029;-64
2024/01/30 11:16:52;;;;;;;2.47;2.20;;;;;;;;;;5015708;28;20082;-64
2024/01/30 11:19:25;;;;;;;4.53;2.67;;;;;;;;;;5021146;28;20080;-65
2024/01/30 11:21:56;;;;;;;6.82;3.17;;;;;;;;;;5020930;28;20026;-64
2024/01/30 11:24:23;;;;;;;2.53;2.22;;;;;;;;;;5019740;28;20029;-65
2024/01/30 11:27:03;;;;;;;7.03;2.63;;;;;;;;;;5026983;28;20038;-68
2024/01/30 11:29:30;;;;;;;5.50;2.70;;;;;;;;;;5022041;28;20578;-65
2024/01/30 11:31:57;;;;;;;2.05;1.90;;;;;;;;;;5017796;28;20097;-66
2024/01/30 11:34:23;;;;;;;6.20;3.05;;;;;;;;;;5001465;28;20124;-66
2024/01/30 11:36:55;;;;;;;2.47;2.03;;;;;;;;;;5017969;28;20406;-66
2024/01/30 11:39:22;;;;;;;3.25;2.47;;;;;;;;;;5017931;28;21529;-68
2024/01/30 11:41:52;;;;;;;6.07;2.47;;;;;;;;;;5000453;28;20045;-70
2024/01/30 11:44:20;;;;;;;8.98;3.03;;;;;;;;;;5021834;28;20029;-67
2024/01/30 11:46:47;;;;;;;2.90;2.33;;;;;;;;;;5018268;28;20025;-70
2024/01/30 11:49:13;;;;;;;4.10;2.70;;;;;;;;;;4989574;28;20490;-65
2024/01/30 11:51:40;;;;;;;2.85;2.20;;;;;;;;;;5016547;28;20592;-66
2024/01/30 11:54:06;;;;;;;3.67;2.45;;;;;;;;;;5027020;28;20021;-67
2024/01/30 11:56:32;;;;;;;3.45;2.72;;;;;;;;;;5020984;28;20432;-72
2024/01/30 11:59:00;;;;;;;3.10;2.38;;;;;;;;;;5015343;28;20383;-68
2024/01/30 12:01:27;;;;;;;2.92;2.35;;;;;;;;;;5023414;28;20703;-71
2024/01/30 12:03:53;;;;;;;3.20;2.33;;;;;;;;;;5021656;28;20029;-69
2024/01/30 12:06:19;;;;;;;5.60;2.50;;;;;;;;;;5028600;28;20132;-69
2024/01/30 12:08:59;;;;;;;3.13;2.50;;;;;;;;;;5022970;28;20370;-68
2024/01/30 12:11:25;;;;;;;2.60;2.00;;;;;;;;;;5025109;28;20056;-66
2024/01/30 12:13:54;;;;;;;4.82;2.45;;;;;;;;;;5020166;28;20036;-66
2024/01/30 12:16:21;;;;;;;2.85;2.42;;;;;;;;;;5021535;28;20441;-66
2024/01/30 12:18:47;;;;;;;2.78;2.00;;;;;;;;;;5019961;28;20033;-66
2024/01/30 12:21:16;;;;;;;7.40;2.30;;;;;;;;;;5020930;28;20018;-70
2024/01/30 12:23:43;;;;;;;5.20;2.42;;;;;;;;;;5023844;28;20025;-67
2024/01/30 12:26:09;;;;;;;2.03;1.75;;;;;;;;;;5025308;28;20079;-64
2024/01/30 12:28:35;;;;;;;7.43;2.45;;;;;;;;;;5018022;28;20914;-64
2024/01/30 12:31:02;;;;;;;2.70;2.15;;;;;;;;;;5020563;28;20136;-67
2024/01/30 12:33:29;;;;;;;2.60;2.10;;;;;;;;;;5020093;28;20029;-66
2024/01/30 12:35:56;;;;;;;2.50;2.10;;;;;;;;;;5024398;28;20034;-66
2024/01/30 12:38:23;;;;;;;4.22;2.25;;;;;;;;;;5019042;28;20059;-66
2024/01/30 12:40:50;;;;;;;4.57;2.30;;;;;;;;;;5009985;28;20030;-66
2024/01/30 12:43:16;;;;;;;2.88;2.30;;;;;;;;;;5018829;28;20378;-67
2024/01/30 12:45:42;;;;;;;7.15;2.50;;;;;;;;;;5021764;28;20481;-68
2024/01/30 12:48:09;;;;;;;3.10;2.22;;;;;;;;;;5025544;28;20509;-65
2024/01/30 12:50:36;;;;;;;3.88;2.50;;;;;;;;;;5022280;28;20446;-67
2024/01/30 12:53:02;;;;;;;2.75;2.30;;;;;;;;;;5018676;28;20334;-68
2024/01/30 12:55:30;;;;;;;2.75;2.22;;;;;;;;;;5021887;28;20485;-68
2024/01/30 12:57:56;;;;;;;3.75;2.42;;;;;;;;;;5005314;28;20021;-70
2024/01/30 13:00:22;;;;;;;5.85;2.20;;;;;;;;;;5018387;28;20040;-68
2024/01/30 13:02:49;;;;;;;3.80;2.00;;;;;;;;;;5020973;28;20072;-66
2024/01/30 13:05:15;;;;;;;3.58;2.00;;;;;;;;;;5024969;28;20029;-65
2024/01/30 13:07:41;;;;;;;6.65;2.17;;;;;;;;;;5018458;28;20068;-66
2024/01/30 13:10:07;;;;;;;6.10;2.10;;;;;;;;;;5024538;28;20045;-67
2024/01/30 13:12:38;;;;;;;7.40;3.05;;;;;;;;;;5020897;28;20108;-68
2024/01/30 13:15:05;;;;;;;4.43;2.20;;;;;;;;;;4994591;28;20063;-67
2024/01/30 13:17:32;;;;;;;3.75;2.00;;;;;;;;;;5020637;28;20136;-68
2024/01/30 13:20:01;;;;;;;5.60;2.05;;;;;;;;;;5019861;28;20045;-67
2024/01/30 13:22:27;;;;;;;3.25;2.08;;;;;;;;;;5002000;28;20103;-67
2024/01/30 13:24:53;;;;;;;2.22;1.85;;;;;;;;;;5018001;28;20079;-68
2024/01/30 13:27:19;;;;;;;4.88;2.15;;;;;;;;;;5014213;28;20556;-67
2024/01/30 13:29:46;;;;;;;4.43;1.92;;;;;;;;;;5016638;28;20026;-67
2024/01/30 13:32:12;;;;;;;4.68;2.25;;;;;;;;;;5023156;28;20068;-67
2024/01/30 13:34:39;;;;;;;5.03;2.40;;;;;;;;;;5019302;28;20034;-67
2024/01/30 13:37:05;;;;;;;2.45;1.95;;;;;;;;;;5007036;28;20029;-67
2024/01/30 13:39:32;;;;;;;3.95;1.70;;;;;;;;;;5020174;28;20047;-67
2024/01/30 13:41:58;;;;;;;3.58;2.40;;;;;;;;;;5022902;28;20025;-67
2024/01/30 13:44:24;;;;;;;2.67;1.77;;;;;;;;;;5017124;28;20493;-67
2024/01/30 13:46:50;;;;;;;2.83;1.80;;;;;;;;;;5020654;28;20034;-68
2024/01/30 13:49:16;;;;;;;4.28;2.47;;;;;;;;;;5020146;28;20022;-67
2024/01/30 13:51:43;;;;;;;2.10;1.85;;;;;;;;;;5017853;28;20032;-67
2024/01/30 13:54:09;;;;;;;2.95;2.03;;;;;;;;;;5016541;28;20374;-68
2024/01/30 13:56:36;;;;;;;4.13;2.08;;;;;;;;;;5017074;28;20033;-67
2024/01/30 13:59:04;;;;;;;7.55;2.35;;;;;;;;;;5018007;28;20136;-67
2024/01/30 14:01:31;;;;;;;6.00;3.38;;;;;;;;;;5001619;28;20112;-67
2024/01/30 14:03:57;;;;;;;3.25;2.20;;;;;;;;;;5020208;28;20844;-67
2024/01/30 14:06:24;;;;;;;4.95;3.35;;;;;;;;;;5017989;28;20035;-67
2024/01/30 14:08:53;;;;;;;6.47;2.40;;;;;;;;;;5017680;28;20071;-67
2024/01/30 14:11:20;;;;;;;4.32;2.78;;;;;;;;;;5016819;28;20049;-66
2024/01/30 14:13:46;;;;;;;7.80;4.15;;;;;;;;;;5019826;28;20466;-68
2024/01/30 14:16:12;;;;;;;4.18;2.28;;;;;;;;;;5019633;28;20075;-67
2024/01/30 14:18:40;;;;;;;4.75;2.50;;;;;;;;;;5019125;28;20080;-67
2024/01/30 14:21:08;;;;;;;2.92;2.10;;;;;;;;;;5026367;28;20085;-68
2024/01/30 14:23:34;;;;;;;1.73;1.63;;;;;;;;;;5030488;28;20032;-65
2024/01/30 14:26:01;;;;;;;4.60;2.20;;;;;;;;;;5026831;28;20375;-66
2024/01/30 14:28:27;;;;;;;4.10;2.13;;;;;;;;;;5017342;28;20419;-69
2024/01/30 14:30:53;;;;;;;5.40;2.35;;;;;;;;;;5020563;28;20033;-73
2024/01/30 14:33:20;;;;;;;3.45;2.20;;;;;;;;;;5016143;28;20034;-69
2024/01/30 14:35:46;;;;;;;3.70;2.15;;;;;;;;;;5023634;28;20031;-65
2024/01/30 14:38:13;;;;;;;3.00;2.28;;;;;;;;;;5018090;28;20030;-69
2024/01/30 14:40:40;;;;;;;6.18;3.22;;;;;;;;;;5023843;28;20022;-66
2024/01/30 14:43:06;;;;;;;6.47;2.85;;;;;;;;;;5007247;28;20026;-70